sensor_id;sensor_type;location;lat;lon;timestamp;pressure;altitude;pressure_sealevel;temperature;humidity
52719;BME280;38616;42.140;24.760;2023-02-04T00:00:44;99529.84;;;5.92;40.08
52719;BME280;38616;42.140;24.760;2023-02-04T00:03:10;99536.91;;;6.16;39.65
52719;BME280;38616;42.140;24.760;2023-02-04T00:05:35;99524.56;;;5.58;40.20
52719;BME280;38616;42.140;24.760;2023-02-04T00:08:01;99535.16;;;5.26;40.83
52719;BME280;38616;42.140;24.760;2023-02-04T00:10:27;99530.88;;;5.47;40.86
52719;BME280;38616;42.140;24.760;2023-02-04T00:12:53;99529.22;;;5.24;40.79
52719;BME280;38616;42.140;24.760;2023-02-04T00:15:18;99521.19;;;5.12;41.15
52719;BME280;38616;42.140;24.760;2023-02-04T00:17:44;99500.69;;;5.67;40.41
52719;BME280;38616;42.140;24.760;2023-02-04T00:20:09;99509.91;;;5.94;40.01
52719;BME280;38616;42.140;24.760;2023-02-04T00:22:35;99502.75;;;5.82;40.13
52719;BME280;38616;42.140;24.760;2023-02-04T00:25:00;99510.53;;;5.79;40.42
52719;BME280;38616;42.140;24.760;2023-02-04T00:27:26;99503.00;;;5.58;40.36
52719;BME280;38616;42.140;24.760;2023-02-04T00:29:51;99508.97;;;5.60;41.05
52719;BME280;38616;42.140;24.760;2023-02-04T00:32:17;99498.47;;;5.86;40.66
52719;BME280;38616;42.140;24.760;2023-02-04T00:34:42;99499.13;;;5.94;40.50
52719;BME280;38616;42.140;24.760;2023-02-04T00:37:08;99501.63;;;5.78;41.07
52719;BME280;38616;42.140;24.760;2023-02-04T00:39:33;99497.81;;;5.74;41.21
52719;BME280;38616;42.140;24.760;2023-02-04T00:41:59;99496.78;;;5.58;40.45
52719;BME280;38616;42.140;24.760;2023-02-04T00:44:24;99493.22;;;5.13;40.57
52719;BME280;38616;42.140;24.760;2023-02-04T00:46:49;99500.00;;;5.15;40.82
52719;BME280;38616;42.140;24.760;2023-02-04T00:49:15;99499.81;;;5.22;40.45
52719;BME280;38616;42.140;24.760;2023-02-04T00:51:40;99497.78;;;5.12;40.61
52719;BME280;38616;42.140;24.760;2023-02-04T00:54:10;99493.84;;;5.20;40.35
52719;BME280;38616;42.140;24.760;2023-02-04T00:56:36;99496.16;;;5.11;40.61
52719;BME280;38616;42.140;24.760;2023-02-04T00:59:01;99489.94;;;5.28;40.95
52719;BME280;38616;42.140;24.760;2023-02-04T01:01:27;99478.97;;;5.35;40.64
52719;BME280;38616;42.140;24.760;2023-02-04T01:03:53;99476.16;;;5.46;40.66
52719;BME280;38616;42.140;24.760;2023-02-04T01:06:19;99472.09;;;5.44;40.03
52719;BME280;38616;42.140;24.760;2023-02-04T01:08:44;99471.13;;;5.33;40.13
52719;BME280;38616;42.140;24.760;2023-02-04T01:11:09;99456.50;;;5.24;40.54
52719;BME280;38616;42.140;24.760;2023-02-04T01:13:35;99460.25;;;5.45;40.28
52719;BME280;38616;42.140;24.760;2023-02-04T01:16:00;99449.47;;;5.45;40.15
52719;BME280;38616;42.140;24.760;2023-02-04T01:18:26;99443.16;;;5.79;40.49
52719;BME280;38616;42.140;24.760;2023-02-04T01:20:51;99433.28;;;6.12;39.49
52719;BME280;38616;42.140;24.760;2023-02-04T01:23:16;99422.31;;;6.24;39.75
52719;BME280;38616;42.140;24.760;2023-02-04T01:25:42;99415.59;;;6.26;39.85
52719;BME280;38616;42.140;24.760;2023-02-04T01:28:07;99417.66;;;6.14;40.53
52719;BME280;38616;42.140;24.760;2023-02-04T01:30:33;99397.59;;;6.32;39.73
52719;BME280;38616;42.140;24.760;2023-02-04T01:32:58;99396.59;;;5.88;40.06
52719;BME280;38616;42.140;24.760;2023-02-04T01:35:24;99385.00;;;5.88;40.73
52719;BME280;38616;42.140;24.760;2023-02-04T01:37:49;99376.13;;;6.15;40.21
52719;BME280;38616;42.140;24.760;2023-02-04T01:40:15;99365.28;;;6.42;40.03
52719;BME280;38616;42.140;24.760;2023-02-04T01:42:40;99357.03;;;6.59;39.24
52719;BME280;38616;42.140;24.760;2023-02-04T01:45:06;99348.09;;;6.21;39.86
52719;BME280;38616;42.140;24.760;2023-02-04T01:47:32;99367.44;;;6.08;40.52
52719;BME280;38616;42.140;24.760;2023-02-04T01:49:58;99348.00;;;5.56;41.52
52719;BME280;38616;42.140;24.760;2023-02-04T01:52:24;99355.63;;;6.14;40.55
52719;BME280;38616;42.140;24.760;2023-02-04T01:54:50;99361.56;;;6.48;40.25
52719;BME280;38616;42.140;24.760;2023-02-04T01:57:17;99353.94;;;6.40;40.39
52719;BME280;38616;42.140;24.760;2023-02-04T01:59:44;99351.31;;;6.50;39.74
52719;BME280;38616;42.140;24.760;2023-02-04T02:02:43;99347.16;;;6.38;40.61
52719;BME280;38616;42.140;24.760;2023-02-04T02:05:30;99352.84;;;6.03;40.97
52719;BME280;38616;42.140;24.760;2023-02-04T02:07:57;99347.28;;;5.88;41.59
52719;BME280;38616;42.140;24.760;2023-02-04T02:10:24;99346.91;;;5.79;41.97
52719;BME280;38616;42.140;24.760;2023-02-04T02:12:50;99346.72;;;5.86;41.78
52719;BME280;38616;42.140;24.760;2023-02-04T02:15:16;99335.66;;;5.60;42.55
52719;BME280;38616;42.140;24.760;2023-02-04T02:17:42;99329.88;;;5.73;41.86
52719;BME280;38616;42.140;24.760;2023-02-04T02:20:10;99334.63;;;5.94;41.80
52719;BME280;38616;42.140;24.760;2023-02-04T02:25:20;99328.69;;;5.91;41.90
52719;BME280;38616;42.140;24.760;2023-02-04T02:27:45;99318.63;;;6.09;41.54
52719;BME280;38616;42.140;24.760;2023-02-04T02:30:13;99317.28;;;5.84;42.03
52719;BME280;38616;42.140;24.760;2023-02-04T02:32:42;99306.88;;;5.93;42.04
52719;BME280;38616;42.140;24.760;2023-02-04T02:35:08;99315.31;;;6.02;42.15
52719;BME280;38616;42.140;24.760;2023-02-04T02:37:34;99304.22;;;5.98;42.01
52719;BME280;38616;42.140;24.760;2023-02-04T02:39:59;99310.34;;;6.21;41.17
52719;BME280;38616;42.140;24.760;2023-02-04T02:42:25;99290.88;;;5.86;42.07
52719;BME280;38616;42.140;24.760;2023-02-04T02:44:51;99296.03;;;5.88;42.16
52719;BME280;38616;42.140;24.760;2023-02-04T02:47:20;99286.53;;;5.53;42.05
52719;BME280;38616;42.140;24.760;2023-02-04T02:49:49;99284.66;;;5.81;42.06
52719;BME280;38616;42.140;24.760;2023-02-04T02:52:15;99283.41;;;6.26;41.14
52719;BME280;38616;42.140;24.760;2023-02-04T02:54:41;99293.56;;;5.54;42.16
52719;BME280;38616;42.140;24.760;2023-02-04T02:57:20;99286.53;;;5.80;42.06
52719;BME280;38616;42.140;24.760;2023-02-04T02:59:46;99279.44;;;5.41;43.24
52719;BME280;38616;42.140;24.760;2023-02-04T03:02:14;99267.34;;;5.44;43.17
52719;BME280;38616;42.140;24.760;2023-02-04T03:04:44;99252.44;;;5.36;43.33
52719;BME280;38616;42.140;24.760;2023-02-04T03:07:12;99256.34;;;5.51;43.03
52719;BME280;38616;42.140;24.760;2023-02-04T03:09:38;99253.41;;;5.25;43.73
52719;BME280;38616;42.140;24.760;2023-02-04T03:12:04;99246.31;;;5.73;43.01
52719;BME280;38616;42.140;24.760;2023-02-04T03:14:31;99247.25;;;5.89;42.46
52719;BME280;38616;42.140;24.760;2023-02-04T03:16:58;99235.91;;;5.55;43.30
52719;BME280;38616;42.140;24.760;2023-02-04T03:19:26;99237.06;;;5.64;43.48
52719;BME280;38616;42.140;24.760;2023-02-04T03:21:52;99236.91;;;6.09;42.52
52719;BME280;38616;42.140;24.760;2023-02-04T03:24:19;99239.72;;;6.29;41.33
52719;BME280;38616;42.140;24.760;2023-02-04T03:26:44;99240.97;;;5.79;42.53
52719;BME280;38616;42.140;24.760;2023-02-04T03:29:10;99243.72;;;5.84;43.13
52719;BME280;38616;42.140;24.760;2023-02-04T03:31:36;99245.19;;;5.69;43.54
52719;BME280;38616;42.140;24.760;2023-02-04T03:34:04;99239.59;;;5.76;43.17
52719;BME280;38616;42.140;24.760;2023-02-04T03:36:30;99229.53;;;5.99;41.93
52719;BME280;38616;42.140;24.760;2023-02-04T03:38:55;99239.47;;;5.93;42.44
52719;BME280;38616;42.140;24.760;2023-02-04T03:41:21;99231.22;;;5.72;42.80
52719;BME280;38616;42.140;24.760;2023-02-04T03:43:47;99229.19;;;5.90;42.51
52719;BME280;38616;42.140;24.760;2023-02-04T03:46:12;99222.34;;;5.72;43.17
52719;BME280;38616;42.140;24.760;2023-02-04T03:48:38;99223.94;;;6.05;42.86
52719;BME280;38616;42.140;24.760;2023-02-04T03:51:03;99217.34;;;6.29;42.32
52719;BME280;38616;42.140;24.760;2023-02-04T03:53:29;99215.41;;;6.24;42.74
52719;BME280;38616;42.140;24.760;2023-02-04T03:55:54;99208.34;;;6.13;43.17
52719;BME280;38616;42.140;24.760;2023-02-04T03:58:20;99205.66;;;6.13;42.66
52719;BME280;38616;42.140;24.760;2023-02-04T04:00:45;99195.94;;;5.74;44.18
52719;BME280;38616;42.140;24.760;2023-02-04T04:03:11;99181.97;;;5.50;44.53
52719;BME280;38616;42.140;24.760;2023-02-04T04:05:36;99181.38;;;5.42;44.70
52719;BME280;38616;42.140;24.760;2023-02-04T04:08:02;99183.50;;;5.68;44.33
52719;BME280;38616;42.140;24.760;2023-02-04T04:10:27;99173.94;;;5.55;44.57
52719;BME280;38616;42.140;24.760;2023-02-04T04:12:55;99166.38;;;5.52;44.77
52719;BME280;38616;42.140;24.760;2023-02-04T04:15:21;99175.41;;;5.68;44.39
52719;BME280;38616;42.140;24.760;2023-02-04T04:17:47;99175.41;;;6.05;43.85
52719;BME280;38616;42.140;24.760;2023-02-04T04:20:12;99174.69;;;5.83;43.29
52719;BME280;38616;42.140;24.760;2023-02-04T04:22:38;99168.84;;;5.96;43.18
52719;BME280;38616;42.140;24.760;2023-02-04T04:25:04;99156.13;;;5.54;43.60
52719;BME280;38616;42.140;24.760;2023-02-04T04:27:30;99160.13;;;5.46;44.06
52719;BME280;38616;42.140;24.760;2023-02-04T04:29:55;99167.59;;;5.71;43.86
52719;BME280;38616;42.140;24.760;2023-02-04T04:32:21;99170.81;;;5.68;43.38
52719;BME280;38616;42.140;24.760;2023-02-04T04:34:46;99160.94;;;5.46;44.08
52719;BME280;38616;42.140;24.760;2023-02-04T04:37:12;99175.00;;;5.54;44.13
52719;BME280;38616;42.140;24.760;2023-02-04T04:39:37;99180.44;;;5.59;43.86
52719;BME280;38616;42.140;24.760;2023-02-04T04:42:03;99171.44;;;5.81;43.19
52719;BME280;38616;42.140;24.760;2023-02-04T04:44:28;99169.41;;;5.28;43.93
52719;BME280;38616;42.140;24.760;2023-02-04T04:46:54;99149.91;;;5.15;44.57
52719;BME280;38616;42.140;24.760;2023-02-04T04:49:19;99153.06;;;5.40;44.81
52719;BME280;38616;42.140;24.760;2023-02-04T04:51:44;99148.69;;;5.66;43.87
52719;BME280;38616;42.140;24.760;2023-02-04T04:54:10;99137.19;;;5.43;43.96
52719;BME280;38616;42.140;24.760;2023-02-04T04:56:35;99154.66;;;5.36;44.66
52719;BME280;38616;42.140;24.760;2023-02-04T04:59:01;99135.44;;;5.22;44.16
52719;BME280;38616;42.140;24.760;2023-02-04T05:01:27;99123.78;;;5.48;44.49
52719;BME280;38616;42.140;24.760;2023-02-04T05:03:53;99147.22;;;5.86;43.74
52719;BME280;38616;42.140;24.760;2023-02-04T05:06:18;99135.84;;;5.41;44.45
52719;BME280;38616;42.140;24.760;2023-02-04T05:08:52;99142.13;;;4.92;45.17
52719;BME280;38616;42.140;24.760;2023-02-04T05:11:17;99145.91;;;4.91;45.50
52719;BME280;38616;42.140;24.760;2023-02-04T05:13:43;99131.44;;;4.97;45.06
52719;BME280;38616;42.140;24.760;2023-02-04T05:16:08;99150.22;;;4.92;45.29
52719;BME280;38616;42.140;24.760;2023-02-04T05:18:36;99133.09;;;5.03;44.86
52719;BME280;38616;42.140;24.760;2023-02-04T05:21:02;99135.72;;;5.25;44.76
52719;BME280;38616;42.140;24.760;2023-02-04T05:23:28;99143.25;;;5.61;43.88
52719;BME280;38616;42.140;24.760;2023-02-04T05:25:53;99116.25;;;5.51;44.33
52719;BME280;38616;42.140;24.760;2023-02-04T05:28:19;99138.38;;;5.58;44.46
52719;BME280;38616;42.140;24.760;2023-02-04T05:30:44;99116.63;;;5.65;44.47
52719;BME280;38616;42.140;24.760;2023-02-04T05:33:09;99126.56;;;5.64;44.62
52719;BME280;38616;42.140;24.760;2023-02-04T05:35:35;99116.13;;;5.35;44.98
52719;BME280;38616;42.140;24.760;2023-02-04T05:38:00;99127.56;;;5.53;44.93
52719;BME280;38616;42.140;24.760;2023-02-04T05:40:26;99125.63;;;5.43;45.02
52719;BME280;38616;42.140;24.760;2023-02-04T05:42:51;99127.34;;;5.22;45.19
52719;BME280;38616;42.140;24.760;2023-02-04T05:45:16;99124.78;;;5.42;44.76
52719;BME280;38616;42.140;24.760;2023-02-04T05:47:43;99143.06;;;5.35;45.06
52719;BME280;38616;42.140;24.760;2023-02-04T05:50:09;99137.25;;;5.48;44.77
52719;BME280;38616;42.140;24.760;2023-02-04T05:52:35;99131.72;;;5.28;44.71
52719;BME280;38616;42.140;24.760;2023-02-04T05:55:00;99139.75;;;5.23;44.53
52719;BME280;38616;42.140;24.760;2023-02-04T05:57:26;99130.94;;;5.32;44.24
52719;BME280;38616;42.140;24.760;2023-02-04T05:59:51;99139.47;;;5.57;44.29
52719;BME280;38616;42.140;24.760;2023-02-04T06:02:16;99137.25;;;5.48;44.14
52719;BME280;38616;42.140;24.760;2023-02-04T06:04:42;99135.63;;;5.47;43.89
52719;BME280;38616;42.140;24.760;2023-02-04T06:07:08;99138.31;;;5.47;43.81
52719;BME280;38616;42.140;24.760;2023-02-04T06:09:33;99149.63;;;5.50;44.29
52719;BME280;38616;42.140;24.760;2023-02-04T06:11:59;99138.22;;;5.37;44.05
52719;BME280;38616;42.140;24.760;2023-02-04T06:14:24;99151.81;;;5.90;43.55
52719;BME280;38616;42.140;24.760;2023-02-04T06:16:49;99145.13;;;5.98;43.94
52719;BME280;38616;42.140;24.760;2023-02-04T06:19:15;99138.88;;;5.92;43.54
52719;BME280;38616;42.140;24.760;2023-02-04T06:21:40;99136.31;;;5.70;44.17
52719;BME280;38616;42.140;24.760;2023-02-04T06:24:06;99138.22;;;5.75;44.21
52719;BME280;38616;42.140;24.760;2023-02-04T06:26:31;99133.75;;;5.91;43.98
52719;BME280;38616;42.140;24.760;2023-02-04T06:28:56;99147.69;;;6.15;43.78
52719;BME280;38616;42.140;24.760;2023-02-04T06:31:22;99151.19;;;6.21;43.46
52719;BME280;38616;42.140;24.760;2023-02-04T06:33:47;99161.00;;;6.43;43.33
52719;BME280;38616;42.140;24.760;2023-02-04T06:36:13;99158.75;;;5.81;44.29
52719;BME280;38616;42.140;24.760;2023-02-04T06:38:38;99161.25;;;6.31;43.22
52719;BME280;38616;42.140;24.760;2023-02-04T06:41:04;99141.72;;;6.13;43.50
52719;BME280;38616;42.140;24.760;2023-02-04T06:43:29;99146.66;;;6.27;43.50
52719;BME280;38616;42.140;24.760;2023-02-04T06:45:55;99163.44;;;5.96;44.30
52719;BME280;38616;42.140;24.760;2023-02-04T06:48:20;99165.22;;;6.18;43.82
52719;BME280;38616;42.140;24.760;2023-02-04T06:50:46;99162.34;;;6.35;43.54
52719;BME280;38616;42.140;24.760;2023-02-04T06:53:11;99161.53;;;6.40;42.92
52719;BME280;38616;42.140;24.760;2023-02-04T06:55:37;99161.06;;;6.53;42.94
52719;BME280;38616;42.140;24.760;2023-02-04T06:58:02;99163.16;;;6.41;43.72
52719;BME280;38616;42.140;24.760;2023-02-04T07:00:28;99170.47;;;6.45;43.36
52719;BME280;38616;42.140;24.760;2023-02-04T07:02:55;99163.34;;;6.24;43.70
52719;BME280;38616;42.140;24.760;2023-02-04T07:05:22;99169.09;;;6.38;43.33
52719;BME280;38616;42.140;24.760;2023-02-04T07:07:47;99164.81;;;6.47;43.37
52719;BME280;38616;42.140;24.760;2023-02-04T07:10:13;99180.13;;;6.31;43.10
52719;BME280;38616;42.140;24.760;2023-02-04T07:12:38;99172.84;;;6.36;43.31
52719;BME280;38616;42.140;24.760;2023-02-04T07:15:04;99184.53;;;6.47;43.76
52719;BME280;38616;42.140;24.760;2023-02-04T07:17:29;99188.50;;;6.34;43.74
52719;BME280;38616;42.140;24.760;2023-02-04T07:19:55;99191.09;;;6.19;44.23
52719;BME280;38616;42.140;24.760;2023-02-04T07:22:20;99181.94;;;6.20;44.11
52719;BME280;38616;42.140;24.760;2023-02-04T07:24:45;99180.06;;;6.20;44.58
52719;BME280;38616;42.140;24.760;2023-02-04T07:27:11;99188.25;;;5.93;45.15
52719;BME280;38616;42.140;24.760;2023-02-04T07:29:36;99188.59;;;6.02;45.38
52719;BME280;38616;42.140;24.760;2023-02-04T07:32:02;99174.38;;;6.12;45.32
52719;BME280;38616;42.140;24.760;2023-02-04T07:34:27;99175.22;;;6.23;45.95
52719;BME280;38616;42.140;24.760;2023-02-04T07:36:52;99180.28;;;6.09;46.24
52719;BME280;38616;42.140;24.760;2023-02-04T07:39:18;99177.19;;;6.43;46.12
52719;BME280;38616;42.140;24.760;2023-02-04T07:41:43;99187.63;;;6.24;46.57
52719;BME280;38616;42.140;24.760;2023-02-04T07:44:09;99174.44;;;5.89;47.64
52719;BME280;38616;42.140;24.760;2023-02-04T07:46:34;99169.91;;;5.95;48.31
52719;BME280;38616;42.140;24.760;2023-02-04T07:49:00;99167.00;;;6.02;48.48
52719;BME280;38616;42.140;24.760;2023-02-04T07:51:25;99172.06;;;5.93;48.99
52719;BME280;38616;42.140;24.760;2023-02-04T07:53:50;99154.94;;;6.10;49.57
52719;BME280;38616;42.140;24.760;2023-02-04T07:56:16;99138.25;;;6.18;49.13
52719;BME280;38616;42.140;24.760;2023-02-04T07:58:41;99139.91;;;6.29;49.12
52719;BME280;38616;42.140;24.760;2023-02-04T08:01:07;99122.72;;;6.46;48.97
52719;BME280;38616;42.140;24.760;2023-02-04T08:03:33;99122.25;;;6.70;48.65
52719;BME280;38616;42.140;24.760;2023-02-04T08:05:58;99100.13;;;6.83;48.14
52719;BME280;38616;42.140;24.760;2023-02-04T08:08:24;99115.28;;;6.94;47.79
52719;BME280;38616;42.140;24.760;2023-02-04T08:10:49;99100.16;;;6.99;47.18
52719;BME280;38616;42.140;24.760;2023-02-04T08:13:15;99113.66;;;6.99;48.02
52719;BME280;38616;42.140;24.760;2023-02-04T08:15:40;99117.41;;;6.77;48.50
52719;BME280;38616;42.140;24.760;2023-02-04T08:18:05;99100.38;;;6.76;48.44
52719;BME280;38616;42.140;24.760;2023-02-04T08:20:31;99103.94;;;7.13;48.33
52719;BME280;38616;42.140;24.760;2023-02-04T08:22:56;99086.38;;;7.10;48.77
52719;BME280;38616;42.140;24.760;2023-02-04T08:25:22;99077.47;;;7.25;47.95
52719;BME280;38616;42.140;24.760;2023-02-04T08:27:47;99088.25;;;7.41;47.98
52719;BME280;38616;42.140;24.760;2023-02-04T08:30:13;99065.31;;;7.33;48.01
52719;BME280;38616;42.140;24.760;2023-02-04T08:32:38;99079.84;;;7.63;47.39
52719;BME280;38616;42.140;24.760;2023-02-04T08:35:05;99074.22;;;7.39;47.90
52719;BME280;38616;42.140;24.760;2023-02-04T08:37:30;99061.25;;;7.41;47.75
52719;BME280;38616;42.140;24.760;2023-02-04T08:39:56;99048.00;;;7.45;47.74
52719;BME280;38616;42.140;24.760;2023-02-04T08:42:21;99068.25;;;7.58;46.12
52719;BME280;38616;42.140;24.760;2023-02-04T08:44:47;99053.13;;;7.46;45.25
52719;BME280;38616;42.140;24.760;2023-02-04T08:47:12;99058.50;;;7.67;44.78
52719;BME280;38616;42.140;24.760;2023-02-04T08:49:38;99064.44;;;7.69;44.33
52719;BME280;38616;42.140;24.760;2023-02-04T08:52:03;99056.56;;;7.83;43.68
52719;BME280;38616;42.140;24.760;2023-02-04T08:54:31;99084.41;;;7.83;44.02
52719;BME280;38616;42.140;24.760;2023-02-04T08:56:56;99067.88;;;7.95;43.55
52719;BME280;38616;42.140;24.760;2023-02-04T08:59:21;99088.19;;;7.93;42.90
52719;BME280;38616;42.140;24.760;2023-02-04T09:01:49;99069.28;;;7.88;42.81
52719;BME280;38616;42.140;24.760;2023-02-04T09:04:16;99109.22;;;8.06;42.62
52719;BME280;38616;42.140;24.760;2023-02-04T09:06:42;99098.66;;;8.10;42.46
52719;BME280;38616;42.140;24.760;2023-02-04T09:09:07;99077.81;;;8.16;42.00
52719;BME280;38616;42.140;24.760;2023-02-04T09:11:33;99104.06;;;8.15;41.48
52719;BME280;38616;42.140;24.760;2023-02-04T09:13:58;99061.28;;;8.22;41.61
52719;BME280;38616;42.140;24.760;2023-02-04T09:16:24;99084.44;;;8.44;41.47
52719;BME280;38616;42.140;24.760;2023-02-04T09:18:49;99088.53;;;8.41;41.03
52719;BME280;38616;42.140;24.760;2023-02-04T09:21:14;99069.38;;;8.27;41.68
52719;BME280;38616;42.140;24.760;2023-02-04T09:23:40;99061.00;;;8.19;41.98
52719;BME280;38616;42.140;24.760;2023-02-04T09:26:05;99050.09;;;8.39;41.49
52719;BME280;38616;42.140;24.760;2023-02-04T09:28:31;99042.69;;;8.61;40.57
52719;BME280;38616;42.140;24.760;2023-02-04T09:30:57;99035.84;;;8.74;40.36
52719;BME280;38616;42.140;24.760;2023-02-04T09:33:22;99034.78;;;8.69;40.46
52719;BME280;38616;42.140;24.760;2023-02-04T09:35:48;99033.00;;;8.89;39.91
52719;BME280;38616;42.140;24.760;2023-02-04T09:38:17;99037.47;;;9.09;39.95
52719;BME280;38616;42.140;24.760;2023-02-04T09:40:46;99023.81;;;8.85;39.95
52719;BME280;38616;42.140;24.760;2023-02-04T09:43:20;99015.06;;;8.98;39.98
52719;BME280;38616;42.140;24.760;2023-02-04T09:45:47;99023.72;;;9.30;39.66
52719;BME280;38616;42.140;24.760;2023-02-04T09:48:13;98997.69;;;9.29;39.50
52719;BME280;38616;42.140;24.760;2023-02-04T09:50:40;99009.63;;;9.28;39.85
52719;BME280;38616;42.140;24.760;2023-02-04T09:53:11;99003.72;;;8.91;40.33
52719;BME280;38616;42.140;24.760;2023-02-04T09:55:39;98995.59;;;8.91;39.98
52719;BME280;38616;42.140;24.760;2023-02-04T09:58:17;99018.09;;;8.92;40.02
52719;BME280;38616;42.140;24.760;2023-02-04T10:00:44;99008.19;;;8.77;40.78
52719;BME280;38616;42.140;24.760;2023-02-04T10:03:17;99011.59;;;8.93;40.67
52719;BME280;38616;42.140;24.760;2023-02-04T10:05:45;99004.00;;;8.95;39.95
52719;BME280;38616;42.140;24.760;2023-02-04T10:08:16;98979.91;;;8.88;40.29
52719;BME280;38616;42.140;24.760;2023-02-04T10:10:43;98998.69;;;8.79;40.69
52719;BME280;38616;42.140;24.760;2023-02-04T10:13:16;98999.63;;;8.99;40.53
52719;BME280;38616;42.140;24.760;2023-02-04T10:15:43;98997.25;;;8.87;40.76
52719;BME280;38616;42.140;24.760;2023-02-04T10:18:12;98989.91;;;8.93;40.67
52719;BME280;38616;42.140;24.760;2023-02-04T10:20:41;98990.44;;;8.95;39.49
52719;BME280;38616;42.140;24.760;2023-02-04T10:23:09;98991.84;;;8.87;39.77
52719;BME280;38616;42.140;24.760;2023-02-04T10:25:36;98958.94;;;9.04;39.97
52719;BME280;38616;42.140;24.760;2023-02-04T10:28:01;98987.16;;;8.98;39.79
52719;BME280;38616;42.140;24.760;2023-02-04T10:30:30;98975.38;;;8.83;40.49
52719;BME280;38616;42.140;24.760;2023-02-04T10:32:58;98990.13;;;8.67;40.72
52719;BME280;38616;42.140;24.760;2023-02-04T10:35:25;98980.22;;;8.52;41.24
52719;BME280;38616;42.140;24.760;2023-02-04T10:38:08;98973.69;;;8.58;40.90
52719;BME280;38616;42.140;24.760;2023-02-04T10:40:35;98972.25;;;8.66;41.50
52719;BME280;38616;42.140;24.760;2023-02-04T10:43:30;98966.84;;;8.66;41.04
52719;BME280;38616;42.140;24.760;2023-02-04T10:46:03;98969.75;;;8.75;41.29
52719;BME280;38616;42.140;24.760;2023-02-04T10:48:29;98948.78;;;8.56;41.51
52719;BME280;38616;42.140;24.760;2023-02-04T10:51:03;98946.53;;;8.68;41.22
52719;BME280;38616;42.140;24.760;2023-02-04T10:53:28;98948.28;;;8.49;41.63
52719;BME280;38616;42.140;24.760;2023-02-04T10:56:17;98948.53;;;8.47;42.11
52719;BME280;38616;42.140;24.760;2023-02-04T10:58:45;98937.66;;;8.57;42.04
52719;BME280;38616;42.140;24.760;2023-02-04T11:01:14;98930.28;;;8.68;42.17
52719;BME280;38616;42.140;24.760;2023-02-04T11:03:40;98930.09;;;8.54;42.33
52719;BME280;38616;42.140;24.760;2023-02-04T11:06:11;98929.38;;;8.38;42.51
52719;BME280;38616;42.140;24.760;2023-02-04T11:08:37;98928.97;;;8.61;42.13
52719;BME280;38616;42.140;24.760;2023-02-04T11:11:06;98929.72;;;8.32;42.51
52719;BME280;38616;42.140;24.760;2023-02-04T11:13:39;98923.41;;;8.41;42.76
52719;BME280;38616;42.140;24.760;2023-02-04T11:16:10;98926.69;;;8.38;43.03
52719;BME280;38616;42.140;24.760;2023-02-04T11:18:45;98926.44;;;8.35;43.18
52719;BME280;38616;42.140;24.760;2023-02-04T11:21:22;98934.25;;;8.41;43.45
52719;BME280;38616;42.140;24.760;2023-02-04T11:23:49;98913.53;;;8.61;43.02
52719;BME280;38616;42.140;24.760;2023-02-04T11:26:17;98927.56;;;8.68;42.62
52719;BME280;38616;42.140;24.760;2023-02-04T11:28:49;98931.41;;;8.62;42.96
52719;BME280;38616;42.140;24.760;2023-02-04T11:33:43;98918.22;;;8.45;44.24
52719;BME280;38616;42.140;24.760;2023-02-04T11:36:11;98902.28;;;8.49;44.57
52719;BME280;38616;42.140;24.760;2023-02-04T11:38:42;98910.75;;;8.71;43.68
52719;BME280;38616;42.140;24.760;2023-02-04T11:41:23;98923.59;;;8.55;44.24
52719;BME280;38616;42.140;24.760;2023-02-04T11:43:50;98896.28;;;8.52;43.94
52719;BME280;38616;42.140;24.760;2023-02-04T11:46:17;98901.59;;;8.67;43.66
52719;BME280;38616;42.140;24.760;2023-02-04T11:48:43;98903.19;;;8.68;43.08
52719;BME280;38616;42.140;24.760;2023-02-04T11:51:15;98893.66;;;9.00;42.82
52719;BME280;38616;42.140;24.760;2023-02-04T11:53:41;98902.41;;;8.92;42.91
52719;BME280;38616;42.140;24.760;2023-02-04T11:56:15;98913.97;;;8.74;43.55
52719;BME280;38616;42.140;24.760;2023-02-04T11:58:41;98882.53;;;8.78;44.18
52719;BME280;38616;42.140;24.760;2023-02-04T12:01:18;98887.19;;;8.96;43.52
52719;BME280;38616;42.140;24.760;2023-02-04T12:03:46;98882.41;;;8.88;43.82
52719;BME280;38616;42.140;24.760;2023-02-04T12:06:23;98879.34;;;8.70;44.08
52719;BME280;38616;42.140;24.760;2023-02-04T12:08:49;98895.13;;;8.63;44.17
52719;BME280;38616;42.140;24.760;2023-02-04T12:11:26;98878.91;;;8.87;43.99
52719;BME280;38616;42.140;24.760;2023-02-04T12:13:55;98892.06;;;8.70;45.17
52719;BME280;38616;42.140;24.760;2023-02-04T12:16:22;98908.00;;;8.77;44.76
52719;BME280;38616;42.140;24.760;2023-02-04T12:18:48;98890.84;;;8.86;45.93
52719;BME280;38616;42.140;24.760;2023-02-04T12:21:14;98890.66;;;8.78;46.19
52719;BME280;38616;42.140;24.760;2023-02-04T12:23:40;98870.09;;;8.77;47.11
52719;BME280;38616;42.140;24.760;2023-02-04T12:26:07;98886.28;;;8.82;47.11
52719;BME280;38616;42.140;24.760;2023-02-04T12:28:32;98882.66;;;8.62;47.37
52719;BME280;38616;42.140;24.760;2023-02-04T12:30:58;98884.03;;;8.60;48.02
52719;BME280;38616;42.140;24.760;2023-02-04T12:33:23;98894.44;;;8.42;48.64
52719;BME280;38616;42.140;24.760;2023-02-04T12:35:49;98881.63;;;8.58;48.19
52719;BME280;38616;42.140;24.760;2023-02-04T12:38:14;98892.94;;;8.65;48.10
52719;BME280;38616;42.140;24.760;2023-02-04T12:40:40;98890.50;;;8.64;48.08
52719;BME280;38616;42.140;24.760;2023-02-04T12:43:05;98891.66;;;8.52;48.42
52719;BME280;38616;42.140;24.760;2023-02-04T12:45:31;98899.56;;;8.49;48.95
52719;BME280;38616;42.140;24.760;2023-02-04T12:47:57;98902.56;;;8.42;49.06
52719;BME280;38616;42.140;24.760;2023-02-04T12:50:23;98897.03;;;8.23;49.04
52719;BME280;38616;42.140;24.760;2023-02-04T12:52:56;98902.34;;;8.33;48.86
52719;BME280;38616;42.140;24.760;2023-02-04T12:55:23;98888.13;;;8.57;48.82
52719;BME280;38616;42.140;24.760;2023-02-04T12:57:49;98903.06;;;8.49;48.44
52719;BME280;38616;42.140;24.760;2023-02-04T13:00:15;98907.03;;;8.62;47.45
52719;BME280;38616;42.140;24.760;2023-02-04T13:02:42;98918.97;;;8.61;47.11